Monroe, MI (48161)

12:48 AM EDT on September 05, 2015 (GMT -0400)
Carrington Farms | | Change Station
CLOSE
Current Station
Personal Weather Station
Location: Monroe, MI
Elevation: 600 ft
Nearby Weather Stations

Elev 600 ft 41.92 °N, 83.45 °W | Updated 11 minutes ago

Scattered Clouds
Scattered Clouds
68.2 °F
Feels Like 68.2 °F
N
0.0
Wind Variable Wind from WSW

Today
High -- | Low -- °F
--% Chance of Precip.
Yesterday
High -- | Low -- °F
Precip. -- in
7:03 AM 8:00 PM
Waning Gibbous, 52% visible
Pressure 30.07 in
Visibility 10.0 miles
Clouds Scattered Clouds 6000 ft
Dew Point 66 °F
Humidity 92%
Rainfall 0.00 in
Snow Depth Not available.
UV 0 out of 12
Pollen 7.20 out of 12
Air Quality Not available.
Flu Activity Not available.
METAR KTTF 050432Z AUTO 00000KT 10SM SCT060 21/20 A3007 RMK AO2 T02050195
Pressure 30.07 in
Visibility 10.0 miles
Clouds Scattered Clouds 6000 ft
Dew Point 66 °F
Humidity 92%
Rainfall 0.00 in
Snow Depth Not available.
UV 0 out of 12
Pollen 7.20 out of 12
Air Quality Not available.
Flu Activity Not available.
METAR KTTF 050432Z AUTO 00000KT 10SM SCT060 21/20 A3007 RMK AO2 T02050195

10-Day Weather Forecast

×

Almanac

Astronomy

Sep. 05, 2015 Rise Set
Actual Time
Civil Twilight
Nautical Twilight
Astronomical Twilight
Moon
Length of Visible Light
Length of Day
Tomorrow will be .
, % of the Moon is Illuminated

Today's Extremes

State Highs State Lows

Community

WunderPhotos

Upload Photos

1,852,426 photos uploaded!

WunderBlogs® & News

Nearby

Air Quality

  Air Quality AQ Index Pollutant
Not available.

Snow Depth

Station Depth Elevation

Earthquake Activity

City Distance Mag. Time & Date
Minimum magnitude displayed is 2.5.

Coastal Water Temperatures

Place Temperature

Stations

Nearby Weather Stations

Station Location Temp. Windchill Dew Point Humidity Wind Precip. Elev Updated Type